Главная страница
METAR-TAF:

METAR-TAF

Аэропорты :

Дубай, Объединенные Арабские Эмираты

широта: 25-15-10N, долгота: 055-21-52E, высота над уровнем моря: 8 м

Текущие метеонаблюдения

Эта сводка был подготовлена 55 минут назад, в 22:00 UTC
Ветер 4 Узел от южный-юго-западный
Температура 20°C
Влажность 60%
Давление 1019 hPa
Видимость 10 км и более
Отдельные облака на высоте 4000 фута

METAR: OMDB 182200Z 20004KT 9999 SCT040 20/12 Q1019 NOSIG

Время: 02:55 (22:55 UTC)

Прогноз

Эта сводка был подготовлена 6 часа и 4 минут назад, в 16:51 UTC
Прогноз действительный с 18-го 18 UTC до 20-го 00 UTC
Ветер 7 Узел от юго-восточный
Видимость 10 км и более
небольшая облачность на высоте 3000 фута
изменения
С 19-го 08 UTC до 19-го 10 UTC
Ветер 10 Узел от западный
изменения
С 19-го 15 UTC до 19-го 17 UTC
Ветер 5 Узел от юго-восточный

TAF: OMDB 181651Z 1818/2000 14007KT 9999 FEW030 BECMG 1908/1910 28010KT BECMG 1915/1917 13005KT

Метеонаблюдения и прогнозы для более 4000 аэропортов (сводки METAR и TAF).

Имеющиеся станции представлены на карте желтыми и красными точками.

Чтобы увидеть название станции, наведите на нее мышь.

Затем щелкните, чтобы увидеть метеонаблюдения и метеопрогнозы.

Управление картой: чтобы увеличить масштаб, щелкните зеленые кнопки с черным крестиком; чтобы уменьшить масштаб, щелкните зеленую кнопку с тире; для просмотра соседних карт щелкайте зеленые стрелки.


METAR-TAF: